首页
METAR-TAF:

METAR-TAF

机场 :

恩吉利國際機場

金夏沙, 刚果

纬度: 04-23S, 经度: 015-26E, 海拔: 309米

当前天气观测

该预报发布于49分钟前的08:00 UTC
静风
温度 29°C
湿度 74%
气压 1013 hPa
能見度: 9000
少量云层高于2000英尺

METAR: FZAA 230800Z 00000KT 9000 FEW020 29/24 Q1013 NOSIG

时间: 09:49 (08:49 UTC)

预报

该预报发布于3小时和49分钟前的05:00 UTC
预报有效从23日的 06点(UTC)到 24日的 12点(UTC)
风速4节,风向西南
能見度: 8000
散云层高于1800英尺
成为
从 23日的 11点(UTC)到 23日的 13点(UTC)
风速10节,风向北转西北
散云层高于2400英尺
少量云层高于3000英尺, 积雨云.
短暂存在
从 23日的 15点(UTC)到 23日的 19点(UTC)
雷暴
成为
从 23日的 19点(UTC)到 23日的 21点(UTC)
风速2节,风向
少量云层高于1800英尺
成为
从 24日的 08点(UTC)到 24日的 10点(UTC)
风速8节,风向西
散云层高于2200英尺

TAF: FZAA 230500Z 2306/2412 23004KT 8000 SCT018 BECMG 2311/2313 33010KT SCT024 FEW030CB TEMPO 2315/2319 TS BECMG 2319/2321 19002KT FEW018 BECMG 2408/2410 27008KT SCT022

超过4000个机场的气象观测和天气预报(METAR&TAF报告)。

可查询的气象台以黄色和红色小点在地图上表示。

将鼠标移到小点上方,可查看气象台名称。

然后点击查看天气观测和预报。

如需切换地图:点击带黑十字的绿色按钮放大地图;点击带横线的绿色按钮缩小地图;或者点击绿色箭头查看邻近地区的地图。


METAR-TAF: